Bend, OR

4:08 AM PST on November 20, 2019 (GMT -0800)
Bend Municipal

Weather History for KBDN - October, 2019

Change the Weather History Date:

Saturday, October 19, 2019

  Actual Average (WUND) Record (WUND)
Temperature  
Mean Temperature 40 °F -  
Max Temperature 48 °F - - (-1)
Min Temperature 33 °F - - (-1)
Degree Days  
Heating Degree Days 24    
Moisture  
Dew Point 34 °F    
Average Humidity 76    
Maximum Humidity 93    
Minimum Humidity 50    
Precipitation  
Precipitation 0.22 in - - ()
Sea Level Pressure  
Sea Level Pressure 29.88 in    
Wind  
Wind Speed 12 mph (WSW)    
Max Wind Speed 28 mph    
Max Gust Speed 36 mph    
Visibility 9 miles    
Events Rain , Thunderstorm    
Averages and records for this station are not official NWS values.
T = Trace of Precipitation, MM = Missing Value Source: NWS Daily Summary

Daily Weather History Graph

Daily Weather History Graph

Search for Another Location

Airport or City:

Astronomy

Oct. 19, 2019 Rise Set
Actual Time 7:24 AM PDT 6:14 PM PDT
Civil Twilight 6:55 AM PDT 6:43 PM PDT
Nautical Twilight 6:21 AM PDT 7:17 PM PDT
Astronomical Twilight 5:48 AM PDT 7:50 PM PDT
Moon 10:19 PM PDT (10/19) 1:10 PM PDT (10/19)
Length of Visible Light 11h 48m
Length of Day
10h 50m
Waning Gibbous, 68% of the Moon is Illuminated
Oct 19
Waning Gibbous
Oct 21
Last Quarter
Oct 27
New
Nov 4
First Quarter
Nov 12
Full

Hourly Weather History & Observations

Time (PDT) Temp. Windchill Dew Point Humidity Pressure Visibility Wind Dir Wind Speed Gust Speed Precip Events Conditions
12:15 AM 44.6 °F 40.2 °F 33.8 °F 66% 29.85 in 10.0 mi SSW 8.1 mph 16.1 mph N/A   Clear
12:35 AM 44.6 °F 38.8 °F 33.8 °F 66% 29.83 in 10.0 mi SSW 11.5 mph 17.3 mph N/A   Clear
12:55 AM 44.6 °F 38.8 °F 33.8 °F 66% 29.82 in 10.0 mi South 11.5 mph 18.4 mph N/A   Clear
1:15 AM 46.4 °F 40.1 °F 33.8 °F 62% 29.81 in 10.0 mi South 15.0 mph 23.0 mph N/A   Partly Cloudy
1:35 AM 46.4 °F 39.0 °F 33.8 °F 62% 29.80 in 10.0 mi SSW 19.6 mph - N/A   Scattered Clouds
1:55 AM 44.6 °F 37.2 °F 37.4 °F 76% 29.79 in 10.0 mi South 17.3 mph 24.2 mph N/A   Light Drizzle
2:15 AM 42.8 °F 34.3 °F 35.6 °F 76% 29.77 in 10.0 mi SSW 19.6 mph 26.5 mph N/A   Clear
2:35 AM 41.0 °F 31.9 °F 37.4 °F 87% 29.76 in 5.0 mi SSW 19.6 mph 26.5 mph N/A Rain Rain
2:55 AM 41.0 °F 33.1 °F 37.4 °F 87% 29.76 in 9.0 mi SSW 15.0 mph - 0.02 in   Mostly Cloudy
3:15 AM 41.0 °F 33.5 °F 37.4 °F 87% 29.75 in 3.0 mi South 13.8 mph - N/A Rain Rain
3:35 AM 41.0 °F 33.1 °F 37.4 °F 87% 29.73 in 7.0 mi SSW 15.0 mph - N/A   Light Drizzle
3:55 AM 41.0 °F 31.9 °F 37.4 °F 87% 29.71 in 6.0 mi SSW 19.6 mph 27.6 mph 0.07 in   Light Drizzle
4:15 AM 41.0 °F 33.1 °F 37.4 °F 87% 29.69 in 9.0 mi SSW 15.0 mph 21.9 mph N/A   Light Drizzle
4:35 AM 41.0 °F 31.4 °F 37.4 °F 87% 29.68 in 9.0 mi SSW 21.9 mph 29.9 mph N/A Rain Light Rain
4:55 AM 42.8 °F 34.3 °F 37.4 °F 81% 29.66 in 9.0 mi SSW 19.6 mph 33.4 mph 0.01 in   Light Drizzle
5:15 AM 42.8 °F 34.0 °F 39.2 °F 87% 29.66 in 10.0 mi SSW 20.7 mph 27.6 mph N/A   Clear
5:35 AM 42.8 °F 34.8 °F 39.2 °F 87% 29.66 in 7.0 mi SSW 17.3 mph 24.2 mph N/A   Light Drizzle
5:55 AM 44.6 °F 37.8 °F 39.2 °F 81% 29.66 in 10.0 mi SW 15.0 mph 26.5 mph N/A   Clear
6:15 AM 44.6 °F 38.8 °F 41.0 °F 87% 29.70 in 10.0 mi WNW 11.5 mph - N/A   Light Drizzle
6:35 AM 42.8 °F 35.1 °F 37.4 °F 81% 29.70 in 4.0 mi WNW 16.1 mph 24.2 mph N/A Rain , Thunderstorm Rain
6:55 AM 41.0 °F 35.2 °F 37.4 °F 87% 29.71 in 10.0 mi West 9.2 mph 15.0 mph 0.01 in   Scattered Clouds
7:15 AM 41.0 °F 36.4 °F 37.4 °F 87% 29.74 in 10.0 mi WNW 6.9 mph - N/A   Clear
7:35 AM 41.0 °F 30.2 °F 35.6 °F 81% 29.77 in 4.0 mi NW 27.6 mph 35.7 mph N/A   Light Drizzle
7:55 AM 37.4 °F 30.3 °F 35.6 °F 93% 29.77 in 4.0 mi SW 10.4 mph 21.9 mph 0.09 in Rain , Thunderstorm Rain
8:15 AM 39.2 °F 33.6 °F 33.8 °F 81% 29.78 in 10.0 mi West 8.1 mph 17.3 mph N/A   Partly Cloudy
8:35 AM 39.2 °F 32.5 °F 35.6 °F 87% 29.79 in 10.0 mi WSW 10.4 mph 16.1 mph N/A   Clear
8:55 AM 42.8 °F 38.6 °F 35.6 °F 76% 29.80 in 10.0 mi West 6.9 mph - N/A   Partly Cloudy
9:15 AM 42.8 °F 41.1 °F 35.6 °F 76% 29.82 in 10.0 mi WSW 3.5 mph - N/A   Scattered Clouds
9:35 AM 44.6 °F 38.4 °F 33.8 °F 66% 29.83 in 10.0 mi WNW 12.7 mph - N/A   Partly Cloudy
9:55 AM 42.8 °F 34.3 °F 35.6 °F 76% 29.84 in 10.0 mi WNW 19.6 mph 29.9 mph N/A   Scattered Clouds
10:15 AM 39.2 °F 28.5 °F 35.6 °F 87% 29.85 in 6.0 mi West 24.2 mph 32.2 mph N/A   Light Drizzle
10:35 AM 37.4 °F 30.3 °F 35.6 °F 93% 29.86 in 6.0 mi West 10.4 mph 18.4 mph N/A Rain Light Rain
10:55 AM 41.0 °F 36.4 °F 37.4 °F 87% 29.86 in 10.0 mi SW 6.9 mph 13.8 mph 0.02 in   Partly Cloudy
11:15 AM 41.0 °F - 37.4 °F 87% 29.86 in 10.0 mi Calm Calm - N/A   Scattered Clouds
11:35 AM 44.6 °F 41.4 °F 35.6 °F 71% 29.86 in 10.0 mi Variable 5.8 mph 12.7 mph N/A   Partly Cloudy
11:55 AM 46.4 °F 41.1 °F 32.0 °F 57% 29.86 in 10.0 mi WNW 11.5 mph 20.7 mph N/A   Partly Cloudy
12:15 PM 48.2 °F - 30.2 °F 50% 29.86 in 10.0 mi West 18.4 mph 27.6 mph N/A   Clear
12:35 PM 46.4 °F 38.7 °F 30.2 °F 53% 29.88 in 10.0 mi WNW 20.7 mph 33.4 mph N/A   Partly Cloudy
12:55 PM 42.8 °F 34.8 °F 33.8 °F 70% 29.91 in 10.0 mi West 17.3 mph 26.5 mph N/A   Partly Cloudy
1:15 PM 44.6 °F 38.8 °F 35.6 °F 71% 29.90 in 10.0 mi West 11.5 mph 17.3 mph N/A   Clear
1:35 PM 46.4 °F 42.4 °F 33.8 °F 62% 29.91 in 10.0 mi Variable 8.1 mph 15.0 mph N/A   Clear
1:55 PM 46.4 °F 41.5 °F 32.0 °F 57% 29.93 in 10.0 mi NW 10.4 mph - N/A   Partly Cloudy
2:15 PM 46.4 °F 41.1 °F 33.8 °F 62% 29.92 in 10.0 mi West 11.5 mph - N/A   Scattered Clouds
2:35 PM 48.2 °F - 32.0 °F 54% 29.92 in 10.0 mi WSW 9.2 mph 16.1 mph N/A   Partly Cloudy
2:55 PM 48.2 °F - 32.0 °F 54% 29.93 in 10.0 mi WNW 10.4 mph 18.4 mph N/A   Mostly Cloudy
3:15 PM 46.4 °F 41.1 °F 33.8 °F 62% 29.94 in 10.0 mi NW 11.5 mph 18.4 mph N/A   Mostly Cloudy
3:35 PM 46.4 °F 39.8 °F 32.0 °F 57% 29.94 in 10.0 mi NW 16.1 mph 21.9 mph N/A   Scattered Clouds
3:55 PM 46.4 °F 38.5 °F 32.0 °F 57% 29.95 in 10.0 mi WNW 21.9 mph 29.9 mph N/A   Scattered Clouds
4:15 PM 46.4 °F 39.5 °F 33.8 °F 62% 29.96 in 10.0 mi West 17.3 mph 23.0 mph N/A   Partly Cloudy
4:35 PM 46.4 °F 40.7 °F 32.0 °F 57% 29.97 in 10.0 mi WNW 12.7 mph 18.4 mph N/A   Clear
4:55 PM 46.4 °F 40.4 °F 32.0 °F 57% 29.98 in 10.0 mi West 13.8 mph 21.9 mph N/A   Clear
5:15 PM 42.8 °F 36.2 °F 32.0 °F 66% 29.99 in 10.0 mi West 12.7 mph 19.6 mph N/A   Mostly Cloudy
5:35 PM 42.8 °F 37.5 °F 33.8 °F 70% 30.00 in 10.0 mi West 9.2 mph 16.1 mph N/A   Mostly Cloudy
5:55 PM 41.0 °F 36.4 °F 35.6 °F 81% 30.00 in 6.0 mi West 6.9 mph - N/A   Light Drizzle
6:15 PM 39.2 °F 35.9 °F 35.6 °F 87% 30.00 in 10.0 mi WSW 4.6 mph - N/A   Clear
6:35 PM 39.2 °F 35.9 °F 33.8 °F 81% 30.01 in 10.0 mi West 4.6 mph - N/A   Clear
6:55 PM 39.2 °F 37.0 °F 33.8 °F 81% 30.02 in 10.0 mi Variable 3.5 mph - N/A   Clear
7:15 PM 39.2 °F 34.2 °F 33.8 °F 81% 30.02 in 10.0 mi WNW 6.9 mph - N/A   Clear
7:35 PM 39.2 °F 35.0 °F 33.8 °F 81% 30.02 in 10.0 mi West 5.8 mph - N/A   Clear
7:55 PM 39.2 °F - 32.0 °F 75% 30.03 in 10.0 mi Calm Calm - N/A   Clear
8:15 PM 35.6 °F 31.7 °F 32.0 °F 87% 30.04 in 10.0 mi SE 4.6 mph - N/A   Clear
8:35 PM 35.6 °F 31.7 °F 32.0 °F 87% 30.03 in 10.0 mi ESE 4.6 mph - N/A   Clear
8:55 PM 35.6 °F - 32.0 °F 87% 30.04 in 10.0 mi Calm Calm - N/A   Clear
9:15 PM 33.8 °F - 32.0 °F 93% 30.05 in 10.0 mi Calm Calm - N/A   Partly Cloudy
9:35 PM 35.6 °F - 32.0 °F 87% 30.05 in 10.0 mi Calm Calm - N/A   Partly Cloudy
9:55 PM 35.6 °F 31.7 °F 32.0 °F 87% 30.06 in 10.0 mi ESE 4.6 mph - N/A   Partly Cloudy
10:15 PM 35.6 °F 30.7 °F 32.0 °F 87% 30.07 in 10.0 mi SE 5.8 mph - N/A   Clear
10:35 PM 35.6 °F - 30.2 °F 81% 30.07 in 10.0 mi Calm Calm - N/A   Clear
10:55 PM 33.8 °F 28.6 °F 30.2 °F 87% 30.07 in 10.0 mi South 5.8 mph - N/A   Clear
11:15 PM 35.6 °F 28.6 °F 32.0 °F 87% 30.08 in 10.0 mi SSW 9.2 mph - N/A   Partly Cloudy
11:35 PM 37.4 °F 29.3 °F 32.0 °F 81% 30.08 in 10.0 mi SW 12.7 mph - N/A   Partly Cloudy
11:55 PM 37.4 °F 33.8 °F 32.0 °F 81% 30.09 in 10.0 mi SW 4.6 mph 13.8 mph N/A   Clear